createdAt,value
2018-10-21T00:01:17.660Z,10.83
2018-10-21T00:03:46.489Z,13.37
2018-10-21T00:06:15.319Z,14.93
2018-10-21T00:08:44.334Z,15.30
2018-10-21T00:11:13.229Z,13.03
2018-10-21T00:13:42.843Z,11.40
2018-10-21T00:16:11.698Z,12.77
2018-10-21T00:18:40.525Z,11.63
2018-10-21T00:21:09.463Z,11.27
2018-10-21T00:23:38.229Z,14.20
2018-10-21T00:26:07.062Z,12.57
2018-10-21T00:28:35.886Z,12.53
2018-10-21T00:31:04.830Z,14.37
2018-10-21T00:33:33.658Z,12.40
2018-10-21T00:36:02.481Z,12.47
2018-10-21T00:38:31.305Z,13.00
2018-10-21T00:41:00.210Z,14.50
2018-10-21T00:43:29.009Z,12.43
2018-10-21T00:45:57.873Z,14.93
2018-10-21T00:48:26.707Z,14.57
2018-10-21T00:50:55.531Z,11.47
2018-10-21T00:53:24.360Z,11.50
2018-10-21T00:55:53.239Z,11.87
2018-10-21T00:58:22.088Z,12.70
2018-10-21T01:00:50.940Z,9.30
2018-10-21T01:03:20.404Z,11.12
2018-10-21T01:05:49.228Z,12.80
2018-10-21T01:08:18.045Z,13.50
2018-10-21T01:10:47.040Z,14.97
2018-10-21T01:13:15.864Z,11.70
2018-10-21T01:15:44.694Z,12.10
2018-10-21T01:18:13.520Z,14.03
2018-10-21T01:20:42.728Z,12.63
2018-10-21T01:23:11.668Z,14.33
2018-10-21T01:25:40.496Z,11.63
2018-10-21T01:28:09.308Z,14.37
2018-10-21T01:30:38.096Z,19.40
2018-10-21T01:33:07.019Z,13.90
2018-10-21T01:35:35.829Z,14.40
2018-10-21T01:38:05.056Z,24.23
2018-10-21T01:40:35.856Z,21.00
2018-10-21T01:43:05.296Z,21.00
2018-10-21T01:45:34.194Z,18.57
2018-10-21T01:48:04.367Z,22.03
2018-10-21T01:50:33.284Z,22.10
2018-10-21T01:53:03.240Z,19.17
2018-10-21T01:55:32.134Z,20.48
2018-10-21T01:58:01.333Z,20.43
2018-10-21T02:00:30.949Z,21.63
2018-10-21T02:03:00.073Z,17.50
2018-10-21T02:05:29.238Z,19.03
2018-10-21T02:07:58.064Z,16.77
2018-10-21T02:10:26.944Z,21.57
2018-10-21T02:12:56.354Z,21.60
2018-10-21T02:15:25.331Z,23.20
2018-10-21T02:17:54.172Z,21.13
2018-10-21T02:20:23.620Z,22.23
2018-10-21T02:22:52.678Z,22.90
2018-10-21T02:25:21.632Z,25.13
2018-10-21T02:27:51.172Z,24.37
2018-10-21T02:30:21.993Z,21.73
2018-10-21T02:32:51.528Z,24.00
2018-10-21T02:35:20.852Z,23.27
2018-10-21T02:37:50.157Z,20.63
2018-10-21T02:41:27.964Z,23.65
2018-10-21T02:43:56.854Z,22.00
2018-10-21T02:46:25.783Z,22.53
2018-10-21T02:48:55.669Z,21.83
2018-10-21T02:51:24.574Z,22.53
2018-10-21T02:53:53.509Z,20.80
2018-10-21T02:56:22.848Z,24.17
2018-10-21T02:58:51.678Z,21.13
2018-10-21T03:01:20.520Z,22.10
2018-10-21T03:03:49.370Z,21.33
2018-10-21T03:06:18.245Z,24.10
2018-10-21T03:08:47.061Z,25.57
2018-10-21T03:11:15.926Z,22.77
2018-10-21T03:13:44.745Z,19.87
2018-10-21T03:16:13.608Z,21.20
2018-10-21T03:18:42.424Z,19.87
2018-10-21T03:21:11.351Z,24.77
2018-10-21T03:23:40.152Z,15.57
2018-10-21T03:26:08.969Z,20.27
2018-10-21T03:28:37.841Z,19.30
2018-10-21T03:31:06.665Z,19.20
2018-10-21T03:33:35.543Z,20.92
2018-10-21T03:36:04.496Z,23.77
2018-10-21T03:38:33.340Z,21.30
2018-10-21T03:41:02.159Z,18.23
2018-10-21T03:43:31.008Z,25.50
2018-10-21T03:46:00.494Z,21.50
2018-10-21T03:48:29.248Z,21.53
2018-10-21T03:50:58.129Z,21.60
2018-10-21T03:53:26.945Z,27.83
2018-10-21T03:55:55.795Z,22.33
2018-10-21T03:58:24.688Z,18.93
2018-10-21T04:00:53.491Z,18.97
2018-10-21T04:03:22.372Z,20.40
2018-10-21T04:05:51.204Z,18.47
2018-10-21T04:08:19.995Z,17.30
2018-10-21T04:10:48.852Z,19.00
2018-10-21T04:13:17.702Z,20.80
2018-10-21T04:15:46.533Z,17.07
2018-10-21T04:18:15.363Z,18.97
2018-10-21T04:20:44.480Z,16.87
2018-10-21T04:23:13.288Z,19.93
2018-10-21T04:25:42.101Z,21.13
2018-10-21T04:28:11.154Z,15.93
2018-10-21T04:30:41.870Z,16.23
2018-10-21T04:33:12.809Z,17.97
2018-10-21T04:35:41.737Z,17.97
2018-10-21T04:38:25.898Z,18.33
2018-10-21T04:40:54.731Z,20.97
2018-10-21T04:43:23.598Z,20.83
2018-10-21T04:45:52.481Z,19.27
2018-10-21T04:48:21.518Z,21.27
2018-10-21T04:50:50.346Z,20.97
2018-10-21T04:53:19.170Z,22.00
2018-10-21T04:55:47.987Z,19.87
2018-10-21T04:58:17.355Z,19.43
2018-10-21T05:00:46.248Z,16.20
2018-10-21T05:03:15.068Z,18.13
2018-10-21T05:05:43.879Z,21.03
2018-10-21T05:08:12.713Z,18.27
2018-10-21T05:10:41.576Z,18.80
2018-10-21T05:13:10.764Z,21.57
2018-10-21T05:15:40.273Z,17.63
2018-10-21T05:18:09.068Z,19.57
2018-10-21T05:20:37.898Z,25.32
2018-10-21T05:23:06.788Z,18.73
2018-10-21T05:25:35.608Z,22.85
2018-10-21T05:28:04.522Z,19.25
2018-10-21T05:30:33.290Z,21.47
2018-10-21T05:33:02.139Z,26.13
2018-10-21T05:35:30.973Z,21.77
2018-10-21T05:37:59.884Z,20.90
2018-10-21T05:40:28.702Z,22.40
2018-10-21T05:42:57.472Z,21.57
2018-10-21T05:45:26.366Z,25.47
2018-10-21T05:47:55.177Z,23.90
2018-10-21T05:50:24.004Z,24.33
2018-10-21T05:52:52.831Z,20.10
2018-10-21T05:55:21.648Z,21.40
2018-10-21T05:57:50.577Z,26.13
2018-10-21T06:00:20.293Z,20.57
2018-10-21T06:02:49.177Z,21.93
2018-10-21T06:05:23.464Z,20.23
2018-10-21T06:07:52.329Z,23.47
2018-10-21T06:10:21.196Z,22.13
2018-10-21T06:12:50.032Z,21.20
2018-10-21T06:15:18.814Z,29.00
2018-10-21T06:17:47.660Z,20.48
2018-10-21T06:20:21.835Z,19.30
2018-10-21T06:22:50.804Z,23.87
2018-10-21T06:25:22.664Z,21.33
2018-10-21T06:27:51.515Z,19.53
2018-10-21T06:30:20.384Z,24.13
2018-10-21T06:32:49.246Z,17.03
2018-10-21T06:35:18.138Z,18.70
2018-10-21T06:37:46.961Z,18.13
2018-10-21T06:40:15.800Z,23.10
2018-10-21T06:42:44.616Z,19.37
2018-10-21T06:45:13.519Z,23.63
2018-10-21T06:47:42.474Z,25.25
2018-10-21T06:50:14.349Z,24.87
2018-10-21T06:52:43.212Z,29.20
2018-10-21T06:55:12.299Z,27.33
2018-10-21T06:57:41.264Z,26.57
2018-10-21T07:00:10.355Z,31.37
2018-10-21T07:02:39.284Z,29.43
2018-10-21T07:05:13.472Z,24.60
2018-10-21T07:07:42.355Z,30.70
2018-10-21T07:10:11.440Z,30.77
2018-10-21T07:12:40.366Z,35.35
2018-10-21T07:15:09.315Z,32.93
2018-10-21T07:17:38.152Z,32.63
2018-10-21T07:20:07.008Z,26.87
2018-10-21T07:22:35.904Z,23.80
2018-10-21T07:25:05.148Z,21.23
2018-10-21T07:27:34.089Z,23.27
2018-10-21T07:30:03.611Z,17.97
2018-10-21T07:32:32.480Z,16.93
2018-10-21T07:35:01.446Z,20.70
2018-10-21T07:37:30.657Z,19.90
2018-10-21T07:39:59.526Z,21.20
2018-10-21T07:42:28.400Z,20.27
2018-10-21T07:44:57.296Z,19.03
2018-10-21T07:47:26.191Z,20.80
2018-10-21T07:49:55.111Z,16.27
2018-10-21T07:52:24.001Z,21.05
2018-10-21T07:54:53.948Z,23.57
2018-10-21T07:57:22.979Z,23.57
2018-10-21T07:59:51.840Z,21.03
2018-10-21T08:02:21.478Z,14.33
2018-10-21T08:04:50.304Z,17.40
2018-10-21T08:07:24.652Z,14.00
2018-10-21T08:09:53.527Z,14.33
2018-10-21T08:12:22.317Z,19.47
2018-10-21T08:14:51.248Z,16.67
2018-10-21T08:17:20.937Z,18.53
2018-10-21T08:19:50.000Z,18.83
2018-10-21T08:22:19.227Z,19.03
2018-10-21T08:24:48.299Z,18.87
2018-10-21T08:27:17.151Z,18.10
2018-10-21T08:29:46.052Z,18.30
2018-10-21T08:32:14.904Z,17.33
2018-10-21T08:34:43.744Z,17.90
2018-10-21T08:37:12.550Z,15.53
2018-10-21T08:39:41.372Z,19.97
2018-10-21T08:42:10.335Z,20.67
2018-10-21T08:44:39.126Z,21.83
2018-10-21T08:47:07.952Z,17.77
2018-10-21T08:49:36.836Z,18.77
2018-10-21T08:52:05.747Z,21.30
2018-10-21T08:54:34.925Z,20.60
2018-10-21T08:57:03.995Z,16.93
2018-10-21T08:59:32.822Z,15.00
2018-10-21T09:02:01.783Z,20.77
2018-10-21T09:04:30.541Z,18.63
2018-10-21T09:06:59.734Z,17.30
2018-10-21T09:09:28.963Z,17.05
2018-10-21T09:11:58.164Z,20.47
2018-10-21T09:14:27.082Z,20.57
2018-10-21T09:16:56.298Z,13.70
2018-10-21T09:19:25.214Z,15.60
2018-10-21T09:21:54.079Z,20.23
2018-10-21T09:24:23.069Z,21.03
2018-10-21T09:26:51.932Z,14.17
2018-10-21T09:29:20.916Z,9.17
2018-10-21T09:31:49.788Z,10.40
2018-10-21T09:34:18.672Z,12.53
2018-10-21T09:36:47.496Z,11.43
2018-10-21T09:39:16.337Z,13.20
2018-10-21T09:41:45.768Z,10.83
2018-10-21T09:44:14.709Z,15.07
2018-10-21T09:46:43.593Z,13.40
2018-10-21T09:49:13.192Z,12.23
2018-10-21T09:51:42.084Z,12.17
2018-10-21T09:54:10.953Z,13.60
2018-10-21T09:56:40.174Z,10.67
2018-10-21T09:59:09.392Z,15.20
2018-10-21T10:01:43.816Z,12.73
2018-10-21T10:04:12.844Z,15.27
2018-10-21T10:06:41.634Z,15.47
2018-10-21T10:09:12.678Z,12.93
2018-10-21T10:11:42.761Z,11.93
2018-10-21T10:14:11.744Z,12.77
2018-10-21T10:16:40.580Z,11.17
2018-10-21T10:19:09.431Z,9.17
2018-10-21T10:21:38.393Z,9.10
2018-10-21T10:24:07.220Z,11.33
2018-10-21T10:26:36.074Z,9.67
2018-10-21T10:29:04.976Z,9.80
2018-10-21T10:31:34.780Z,9.60
2018-10-21T10:34:03.697Z,9.73
2018-10-21T10:36:33.220Z,7.50
2018-10-21T10:39:02.097Z,9.37
2018-10-21T10:41:31.236Z,10.30
2018-10-21T10:44:00.066Z,10.60
2018-10-21T10:46:28.908Z,9.80
2018-10-21T10:48:57.820Z,10.90
2018-10-21T10:51:26.661Z,11.68
2018-10-21T10:53:55.532Z,10.30
2018-10-21T10:56:24.388Z,11.40
2018-10-21T10:58:53.248Z,8.97
2018-10-21T11:01:22.134Z,14.33
2018-10-21T11:03:51.013Z,12.33
2018-10-21T11:06:20.252Z,14.30
2018-10-21T11:08:49.185Z,10.30
2018-10-21T11:11:18.076Z,13.27
2018-10-21T11:13:46.895Z,12.17
2018-10-21T11:16:15.769Z,10.30
2018-10-21T11:18:44.558Z,11.30
2018-10-21T11:21:13.638Z,11.83
2018-10-21T11:23:42.885Z,15.40
2018-10-21T11:26:11.932Z,12.53
2018-10-21T11:28:41.250Z,15.23
2018-10-21T11:31:10.201Z,12.20
2018-10-21T11:33:39.000Z,12.83
2018-10-21T11:36:07.820Z,11.83
2018-10-21T11:38:36.684Z,13.83
2018-10-21T11:41:05.686Z,11.00
2018-10-21T11:43:34.583Z,13.30
2018-10-21T11:46:03.407Z,14.20
2018-10-21T11:48:32.279Z,13.20
2018-10-21T11:51:01.742Z,12.40
2018-10-21T11:53:30.680Z,15.60
2018-10-21T11:55:59.501Z,14.13
2018-10-21T11:58:28.372Z,14.93
2018-10-21T12:00:57.309Z,12.60
2018-10-21T12:03:26.137Z,14.13
2018-10-21T12:05:54.992Z,9.77
2018-10-21T12:08:23.889Z,10.97
2018-10-21T12:10:52.723Z,13.57
2018-10-21T12:13:21.596Z,11.73
2018-10-21T12:15:50.859Z,11.37
2018-10-21T12:18:20.332Z,10.73
2018-10-21T12:20:49.236Z,11.70
2018-10-21T12:23:18.191Z,9.90
2018-10-21T12:25:47.787Z,9.17
2018-10-21T12:28:17.060Z,8.27
2018-10-21T12:30:46.114Z,10.23
2018-10-21T12:33:14.979Z,9.37
2018-10-21T12:35:43.804Z,12.30
2018-10-21T12:38:12.629Z,8.43
2018-10-21T12:40:41.452Z,8.23
2018-10-21T12:43:10.692Z,6.95
2018-10-21T12:45:39.688Z,6.12
2018-10-21T12:48:08.738Z,6.03
2018-10-21T12:50:37.736Z,7.00
2018-10-21T12:53:07.044Z,7.30
2018-10-21T12:55:40.205Z,7.23
2018-10-21T12:58:09.064Z,8.03
2018-10-21T13:00:38.053Z,8.95
2018-10-21T13:03:07.284Z,7.58
2018-10-21T13:05:36.181Z,8.93
2018-10-21T13:08:05.076Z,8.43
2018-10-21T13:10:33.918Z,10.23
2018-10-21T13:13:03.243Z,10.00
2018-10-21T13:15:32.112Z,8.60
2018-10-21T13:18:00.998Z,9.90
2018-10-21T13:20:30.293Z,8.53
2018-10-21T13:22:59.296Z,10.43
2018-10-21T13:25:28.569Z,8.63
2018-10-21T13:27:57.640Z,7.87
2018-10-21T13:30:26.537Z,9.97
2018-10-21T13:32:55.550Z,10.37
2018-10-21T13:35:24.440Z,8.07
2018-10-21T13:37:53.272Z,9.73
2018-10-21T13:40:22.274Z,8.97
2018-10-21T13:42:51.085Z,8.07
2018-10-21T13:45:19.900Z,7.87
2018-10-21T13:47:48.736Z,8.47
2018-10-21T13:50:17.613Z,8.60
2018-10-21T13:52:46.509Z,9.57
2018-10-21T13:55:15.400Z,5.57
2018-10-21T13:57:44.259Z,7.07
2018-10-21T14:00:13.126Z,9.33
2018-10-21T14:02:42.022Z,8.03
2018-10-21T14:05:10.850Z,7.10
2018-10-21T14:07:39.839Z,9.53
2018-10-21T14:10:08.980Z,10.43
2018-10-21T14:12:37.864Z,12.40
2018-10-21T14:15:06.733Z,7.50
2018-10-21T14:17:35.719Z,8.33
2018-10-21T14:20:05.142Z,6.80
2018-10-21T14:22:34.046Z,12.17
2018-10-21T14:25:02.984Z,9.87
2018-10-21T14:27:31.964Z,10.18
2018-10-21T14:30:00.831Z,8.97
2018-10-21T14:32:29.696Z,8.50
2018-10-21T14:34:58.589Z,11.40
2018-10-21T14:37:27.401Z,9.67
2018-10-21T14:39:56.212Z,10.50
2018-10-21T14:42:25.037Z,9.97
2018-10-21T14:44:53.897Z,11.77
2018-10-21T14:47:22.824Z,9.70
2018-10-21T14:49:51.647Z,8.93
2018-10-21T14:52:20.501Z,8.43
2018-10-21T14:54:49.353Z,13.43
2018-10-21T14:57:19.028Z,9.73
2018-10-21T14:59:48.816Z,9.10
2018-10-21T15:02:17.870Z,9.43
2018-10-21T15:04:47.823Z,12.20
2018-10-21T15:07:17.033Z,12.83
2018-10-21T15:09:45.922Z,11.47
2018-10-21T15:12:14.842Z,11.60
2018-10-21T15:14:44.010Z,9.83
2018-10-21T15:17:13.284Z,12.13
2018-10-21T15:19:42.878Z,11.20
2018-10-21T15:22:12.618Z,11.03
2018-10-21T15:24:41.904Z,13.27
2018-10-21T15:27:11.243Z,10.37
2018-10-21T15:29:40.163Z,12.70
2018-10-21T15:32:09.076Z,11.97
2018-10-21T15:34:38.043Z,12.50
2018-10-21T15:37:07.001Z,13.63
2018-10-21T15:39:35.876Z,16.70
2018-10-21T15:42:05.064Z,14.47
2018-10-21T15:44:34.008Z,14.40
2018-10-21T15:47:02.914Z,14.43
2018-10-21T15:49:32.023Z,17.87
2018-10-21T15:52:00.980Z,13.70
2018-10-21T15:54:30.399Z,20.30
2018-10-21T15:56:59.578Z,19.03
2018-10-21T15:59:28.934Z,14.87
2018-10-21T16:01:58.085Z,15.97
2018-10-21T16:04:27.446Z,15.70
2018-10-21T16:06:56.427Z,19.60
2018-10-21T16:09:25.286Z,16.23
2018-10-21T16:11:54.137Z,18.73
2018-10-21T16:14:23.091Z,19.35
2018-10-21T16:16:51.852Z,14.10
2018-10-21T16:19:20.785Z,16.17
2018-10-21T16:21:49.772Z,20.60
2018-10-21T16:24:19.104Z,17.47
2018-10-21T16:26:48.005Z,19.33
2018-10-21T16:29:16.855Z,25.43
2018-10-21T16:31:45.717Z,23.57
2018-10-21T16:34:14.947Z,22.53
2018-10-21T16:36:43.784Z,21.00
2018-10-21T16:39:12.685Z,24.70
2018-10-21T16:41:41.560Z,18.83
2018-10-21T16:44:10.451Z,22.30
2018-10-21T16:46:39.254Z,25.63
2018-10-21T16:49:08.224Z,21.07
2018-10-21T16:51:37.138Z,20.73
2018-10-21T16:54:05.963Z,22.93
2018-10-21T16:56:34.772Z,24.60
2018-10-21T16:59:03.671Z,19.90
2018-10-21T17:01:32.556Z,24.27
2018-10-21T17:04:01.417Z,23.50
2018-10-21T17:06:30.325Z,25.27
2018-10-21T17:08:59.261Z,24.00
2018-10-21T17:11:28.060Z,23.60
2018-10-21T17:13:56.864Z,25.07
2018-10-21T17:16:25.709Z,21.90
2018-10-21T17:18:54.585Z,23.40
2018-10-21T17:21:23.392Z,22.47
2018-10-21T17:23:52.284Z,22.00
2018-10-21T17:26:22.066Z,23.47
2018-10-21T17:28:51.025Z,24.60
2018-10-21T17:31:20.678Z,25.00
2018-10-21T17:33:49.654Z,25.57
2018-10-21T17:36:18.479Z,22.27
2018-10-21T17:38:47.297Z,21.33
2018-10-21T17:41:16.496Z,26.73
2018-10-21T17:43:46.076Z,25.83
2018-10-21T17:46:15.043Z,28.87
2018-10-21T17:48:43.877Z,31.47
2018-10-21T17:51:12.726Z,29.73
2018-10-21T17:53:41.565Z,32.60
2018-10-21T17:56:11.028Z,30.40
2018-10-21T17:58:39.932Z,30.93
2018-10-21T18:01:08.806Z,29.30
2018-10-21T18:03:37.692Z,29.23
2018-10-21T18:06:06.611Z,35.20
2018-10-21T18:08:35.487Z,32.20
2018-10-21T18:11:04.380Z,41.30
2018-10-21T18:13:33.264Z,29.23
2018-10-21T18:16:02.470Z,40.07
2018-10-21T18:18:31.485Z,35.43
2018-10-21T18:21:00.401Z,37.20
2018-10-21T18:23:29.290Z,38.23
2018-10-21T18:25:58.133Z,35.03
2018-10-21T18:28:27.024Z,35.20
2018-10-21T18:30:55.878Z,31.20
2018-10-21T18:33:24.769Z,32.83
2018-10-21T18:35:53.755Z,41.10
2018-10-21T18:38:22.561Z,38.93
2018-10-21T18:40:51.649Z,38.70
2018-10-21T18:43:20.862Z,36.07
2018-10-21T18:45:49.776Z,37.87
2018-10-21T18:48:18.636Z,36.00
2018-10-21T18:50:47.626Z,36.27
2018-10-21T18:53:16.432Z,41.03
2018-10-21T18:55:45.304Z,39.63
2018-10-21T18:58:14.232Z,44.57
2018-10-21T19:00:43.055Z,39.57
2018-10-21T19:03:11.949Z,40.00
2018-10-21T19:05:40.828Z,39.30
2018-10-21T19:08:09.692Z,37.13
2018-10-21T19:10:38.582Z,36.43
2018-10-21T19:13:07.570Z,39.40
2018-10-21T19:15:36.444Z,38.43
2018-10-21T19:18:05.388Z,35.80
2018-10-21T19:20:34.264Z,34.60
2018-10-21T19:23:03.217Z,30.70
2018-10-21T19:25:32.027Z,33.80
2018-10-21T19:28:01.129Z,30.60
2018-10-21T19:30:29.987Z,23.23
2018-10-21T19:32:58.962Z,28.62
2018-10-21T19:35:27.848Z,23.85
2018-10-21T19:37:56.688Z,21.40
2018-10-21T19:40:25.623Z,23.27
2018-10-21T19:42:54.628Z,23.33
2018-10-21T19:45:23.486Z,23.83
2018-10-21T19:47:52.380Z,22.43
2018-10-21T19:50:21.477Z,19.57
2018-10-21T19:52:50.797Z,16.23
2018-10-21T19:55:20.958Z,21.77
2018-10-21T19:57:49.911Z,20.83
2018-10-21T20:00:18.838Z,15.90
2018-10-21T20:02:47.660Z,18.33
2018-10-21T20:05:16.563Z,14.07
2018-10-21T20:07:45.420Z,13.77
2018-10-21T20:10:15.273Z,16.10
2018-10-21T20:12:44.145Z,15.00
2018-10-21T20:15:13.593Z,13.07
2018-10-21T20:17:42.469Z,14.60
2018-10-21T20:20:11.844Z,12.70
2018-10-21T20:22:40.737Z,13.07
2018-10-21T20:25:10.378Z,20.00
2018-10-21T20:27:39.240Z,10.10
2018-10-21T20:30:08.554Z,9.80
2018-10-21T20:32:37.427Z,15.00
2018-10-21T20:35:07.013Z,10.40
2018-10-21T20:37:35.887Z,12.40
2018-10-21T20:40:05.243Z,9.73
2018-10-21T20:42:34.299Z,10.70
2018-10-21T20:45:03.625Z,11.83
2018-10-21T20:47:32.556Z,10.40
2018-10-21T20:50:01.421Z,12.67
2018-10-21T20:52:30.274Z,10.23
2018-10-21T20:54:59.137Z,10.13
2018-10-21T20:57:28.538Z,11.65
2018-10-21T20:59:57.413Z,11.50
2018-10-21T21:02:26.324Z,13.80
2018-10-21T21:04:55.214Z,11.97
2018-10-21T21:07:24.061Z,10.83
2018-10-21T21:09:52.920Z,14.47
2018-10-21T21:12:21.820Z,13.20
2018-10-21T21:14:50.729Z,16.77
2018-10-21T21:17:19.804Z,14.50
2018-10-21T21:19:48.606Z,13.03
2018-10-21T21:22:17.566Z,12.70
2018-10-21T21:24:46.492Z,13.73
2018-10-21T21:27:15.459Z,10.33
2018-10-21T21:29:44.341Z,15.73
2018-10-21T21:32:14.810Z,12.00
2018-10-21T21:34:43.941Z,11.70
2018-10-21T21:37:12.768Z,16.70
2018-10-21T21:39:41.714Z,15.60
2018-10-21T21:42:10.640Z,13.27
2018-10-21T21:44:39.481Z,12.63
2018-10-21T21:47:08.318Z,14.10
2018-10-21T21:49:37.121Z,13.53
2018-10-21T21:52:06.041Z,14.10
2018-10-21T21:54:34.836Z,13.20
2018-10-21T21:57:03.724Z,12.43
2018-10-21T21:59:32.580Z,14.70
2018-10-21T22:02:01.398Z,12.07
2018-10-21T22:04:30.228Z,13.20
2018-10-21T22:06:59.085Z,15.17
2018-10-21T22:09:27.929Z,14.87
2018-10-21T22:11:56.769Z,14.67
2018-10-21T22:14:25.617Z,12.53
2018-10-21T22:16:54.477Z,13.57
2018-10-21T22:19:23.349Z,18.33
2018-10-21T22:21:52.233Z,13.63
2018-10-21T22:24:21.049Z,14.33
2018-10-21T22:26:49.866Z,15.10
2018-10-21T22:29:19.436Z,13.45
2018-10-21T22:31:48.307Z,14.10
2018-10-21T22:34:17.963Z,11.03
2018-10-21T22:36:46.736Z,12.20
2018-10-21T22:39:15.624Z,14.77
2018-10-21T22:41:44.549Z,14.43
2018-10-21T22:44:13.415Z,13.23
2018-10-21T22:46:42.560Z,13.10
2018-10-21T22:49:11.315Z,17.20
2018-10-21T22:51:40.244Z,12.90
2018-10-21T22:54:09.095Z,11.23
2018-10-21T22:56:37.891Z,11.50
2018-10-21T22:59:06.793Z,13.97
2018-10-21T23:01:35.619Z,11.83
2018-10-21T23:04:04.537Z,12.33
2018-10-21T23:06:33.357Z,13.27
2018-10-21T23:09:02.200Z,10.10
2018-10-21T23:11:31.029Z,10.43
2018-10-21T23:13:59.875Z,10.30
2018-10-21T23:16:28.740Z,13.60
2018-10-21T23:19:04.108Z,10.30
2018-10-21T23:21:32.928Z,11.20
2018-10-21T23:24:01.841Z,8.37
2018-10-21T23:26:30.696Z,9.65
2018-10-21T23:28:59.534Z,9.20
2018-10-21T23:31:28.349Z,13.27
2018-10-21T23:33:57.199Z,9.47
2018-10-21T23:36:26.034Z,8.53
2018-10-21T23:38:54.857Z,8.73
2018-10-21T23:41:23.729Z,7.50
2018-10-21T23:43:52.588Z,7.10
2018-10-21T23:46:21.413Z,6.73
2018-10-21T23:48:50.869Z,8.97
2018-10-21T23:51:19.777Z,4.97
2018-10-21T23:53:48.597Z,6.20
2018-10-21T23:56:18.164Z,4.83
2018-10-21T23:58:47.008Z,4.40
